sensor_id;sensor_type;location;lat;lon;timestamp;pressure;altitude;pressure_sealevel;temperature
19061;BMP280;9663;48.996;8.334;2023-04-24T00:00:19;99182.25;;;16.91
19061;BMP280;9663;48.996;8.334;2023-04-24T00:02:45;99181.44;;;16.91
19061;BMP280;9663;48.996;8.334;2023-04-24T00:05:15;99171.34;;;16.88
19061;BMP280;9663;48.996;8.334;2023-04-24T00:07:41;99184.69;;;16.94
19061;BMP280;9663;48.996;8.334;2023-04-24T00:10:08;99179.44;;;16.97
19061;BMP280;9663;48.996;8.334;2023-04-24T00:12:34;99173.25;;;17.01
19061;BMP280;9663;48.996;8.334;2023-04-24T00:15:00;99167.78;;;17.09
19061;BMP280;9663;48.996;8.334;2023-04-24T00:17:26;99169.22;;;17.14
19061;BMP280;9663;48.996;8.334;2023-04-24T00:19:52;99166.50;;;17.18
19061;BMP280;9663;48.996;8.334;2023-04-24T00:22:24;99168.06;;;17.21
19061;BMP280;9663;48.996;8.334;2023-04-24T00:24:50;99169.88;;;17.19
19061;BMP280;9663;48.996;8.334;2023-04-24T00:27:16;99163.84;;;17.20
19061;BMP280;9663;48.996;8.334;2023-04-24T00:29:41;99168.13;;;17.19
19061;BMP280;9663;48.996;8.334;2023-04-24T00:32:07;99173.38;;;17.16
19061;BMP280;9663;48.996;8.334;2023-04-24T00:34:33;99175.03;;;17.17
19061;BMP280;9663;48.996;8.334;2023-04-24T00:36:58;99170.72;;;17.18
19061;BMP280;9663;48.996;8.334;2023-04-24T00:39:24;99175.94;;;17.16
19061;BMP280;9663;48.996;8.334;2023-04-24T00:41:50;99176.72;;;17.18
19061;BMP280;9663;48.996;8.334;2023-04-24T00:44:16;99192.94;;;17.19
19061;BMP280;9663;48.996;8.334;2023-04-24T00:46:42;99180.16;;;17.17
19061;BMP280;9663;48.996;8.334;2023-04-24T00:49:08;99178.50;;;17.16
19061;BMP280;9663;48.996;8.334;2023-04-24T00:51:34;99177.66;;;17.16
19061;BMP280;9663;48.996;8.334;2023-04-24T00:54:03;99171.66;;;17.17
19061;BMP280;9663;48.996;8.334;2023-04-24T00:56:28;99169.06;;;17.18
19061;BMP280;9663;48.996;8.334;2023-04-24T00:58:55;99164.78;;;17.17
19061;BMP280;9663;48.996;8.334;2023-04-24T01:01:22;99169.22;;;17.14
19061;BMP280;9663;48.996;8.334;2023-04-24T01:03:51;99164.84;;;17.16
19061;BMP280;9663;48.996;8.334;2023-04-24T01:06:18;99174.41;;;17.12
19061;BMP280;9663;48.996;8.334;2023-04-24T01:08:46;99173.72;;;17.09
19061;BMP280;9663;48.996;8.334;2023-04-24T01:11:14;99175.41;;;17.10
19061;BMP280;9663;48.996;8.334;2023-04-24T01:13:40;99177.25;;;17.07
19061;BMP280;9663;48.996;8.334;2023-04-24T01:16:06;99171.44;;;17.03
19061;BMP280;9663;48.996;8.334;2023-04-24T01:18:31;99167.19;;;17.04
19061;BMP280;9663;48.996;8.334;2023-04-24T01:20:59;99163.56;;;17.08
19061;BMP280;9663;48.996;8.334;2023-04-24T01:23:28;99165.22;;;17.09
19061;BMP280;9663;48.996;8.334;2023-04-24T01:25:54;99162.75;;;17.07
19061;BMP280;9663;48.996;8.334;2023-04-24T01:28:20;99166.72;;;17.12
19061;BMP280;9663;48.996;8.334;2023-04-24T01:30:46;99167.56;;;17.13
19061;BMP280;9663;48.996;8.334;2023-04-24T01:33:13;99169.09;;;17.17
19061;BMP280;9663;48.996;8.334;2023-04-24T01:35:38;99165.59;;;17.18
19061;BMP280;9663;48.996;8.334;2023-04-24T01:38:05;99174.84;;;17.22
19061;BMP280;9663;48.996;8.334;2023-04-24T01:40:32;99177.22;;;17.26
19061;BMP280;9663;48.996;8.334;2023-04-24T01:42:58;99161.72;;;17.28
19061;BMP280;9663;48.996;8.334;2023-04-24T01:45:24;99168.66;;;17.26
19061;BMP280;9663;48.996;8.334;2023-04-24T01:47:50;99168.06;;;17.21
19061;BMP280;9663;48.996;8.334;2023-04-24T01:50:17;99170.81;;;17.16
19061;BMP280;9663;48.996;8.334;2023-04-24T01:52:43;99171.94;;;17.11
19061;BMP280;9663;48.996;8.334;2023-04-24T01:55:10;99165.28;;;17.07
19061;BMP280;9663;48.996;8.334;2023-04-24T01:57:36;99154.50;;;17.01
19061;BMP280;9663;48.996;8.334;2023-04-24T02:00:04;99155.63;;;16.95
19061;BMP280;9663;48.996;8.334;2023-04-24T02:02:32;99150.84;;;16.88
19061;BMP280;9663;48.996;8.334;2023-04-24T02:04:58;99144.22;;;16.84
19061;BMP280;9663;48.996;8.334;2023-04-24T02:07:24;99141.06;;;16.79
19061;BMP280;9663;48.996;8.334;2023-04-24T02:09:49;99148.88;;;16.76
19061;BMP280;9663;48.996;8.334;2023-04-24T02:12:16;99152.44;;;16.72
19061;BMP280;9663;48.996;8.334;2023-04-24T02:14:43;99149.34;;;16.66
19061;BMP280;9663;48.996;8.334;2023-04-24T02:17:09;99151.00;;;16.67
19061;BMP280;9663;48.996;8.334;2023-04-24T02:19:35;99152.69;;;16.67
19061;BMP280;9663;48.996;8.334;2023-04-24T02:22:01;99144.84;;;16.70
19061;BMP280;9663;48.996;8.334;2023-04-24T02:24:26;99151.75;;;16.68
19061;BMP280;9663;48.996;8.334;2023-04-24T02:26:52;99148.88;;;16.76
19061;BMP280;9663;48.996;8.334;2023-04-24T02:29:17;99157.22;;;16.79
19061;BMP280;9663;48.996;8.334;2023-04-24T02:31:43;99162.22;;;16.82
19061;BMP280;9663;48.996;8.334;2023-04-24T02:34:09;99165.41;;;16.87
19061;BMP280;9663;48.996;8.334;2023-04-24T02:36:34;99155.91;;;16.89
19061;BMP280;9663;48.996;8.334;2023-04-24T02:39:00;99180.31;;;16.96
19061;BMP280;9663;48.996;8.334;2023-04-24T02:41:26;99179.44;;;16.97
19061;BMP280;9663;48.996;8.334;2023-04-24T02:43:57;99183.50;;;17.01
19061;BMP280;9663;48.996;8.334;2023-04-24T02:46:23;99174.19;;;17.00
19061;BMP280;9663;48.996;8.334;2023-04-24T02:48:49;99193.59;;;17.04
19061;BMP280;9663;48.996;8.334;2023-04-24T02:51:15;99186.63;;;17.08
19061;BMP280;9663;48.996;8.334;2023-04-24T02:53:40;99199.78;;;17.00
19061;BMP280;9663;48.996;8.334;2023-04-24T02:56:06;99205.31;;;16.91
19061;BMP280;9663;48.996;8.334;2023-04-24T02:58:31;99194.59;;;16.83
19061;BMP280;9663;48.996;8.334;2023-04-24T03:00:57;99201.09;;;16.72
19061;BMP280;9663;48.996;8.334;2023-04-24T03:03:23;99200.63;;;16.64
19061;BMP280;9663;48.996;8.334;2023-04-24T03:05:49;99205.25;;;16.56
19061;BMP280;9663;48.996;8.334;2023-04-24T03:08:15;99218.25;;;16.52
19061;BMP280;9663;48.996;8.334;2023-04-24T03:10:41;99206.63;;;16.45
19061;BMP280;9663;48.996;8.334;2023-04-24T03:13:06;99232.28;;;16.43
19061;BMP280;9663;48.996;8.334;2023-04-24T03:15:32;99222.41;;;16.34
19061;BMP280;9663;48.996;8.334;2023-04-24T03:17:58;99229.38;;;16.31
19061;BMP280;9663;48.996;8.334;2023-04-24T03:20:24;99234.78;;;16.25
19061;BMP280;9663;48.996;8.334;2023-04-24T03:22:49;99231.59;;;16.20
19061;BMP280;9663;48.996;8.334;2023-04-24T03:25:15;99232.56;;;16.16
19061;BMP280;9663;48.996;8.334;2023-04-24T03:27:41;99232.63;;;16.15
19061;BMP280;9663;48.996;8.334;2023-04-24T03:30:07;99255.06;;;16.08
19061;BMP280;9663;48.996;8.334;2023-04-24T03:32:33;99270.41;;;16.08
19061;BMP280;9663;48.996;8.334;2023-04-24T03:34:59;99264.53;;;16.06
19061;BMP280;9663;48.996;8.334;2023-04-24T03:37:25;99261.22;;;16.04
19061;BMP280;9663;48.996;8.334;2023-04-24T03:39:51;99260.34;;;16.05
19061;BMP280;9663;48.996;8.334;2023-04-24T03:42:17;99256.22;;;16.01
19061;BMP280;9663;48.996;8.334;2023-04-24T03:44:43;99261.22;;;16.04
19061;BMP280;9663;48.996;8.334;2023-04-24T03:47:08;99269.78;;;16.03
19061;BMP280;9663;48.996;8.334;2023-04-24T03:49:34;99265.63;;;16.01
19061;BMP280;9663;48.996;8.334;2023-04-24T03:52:00;99272.53;;;15.99
19061;BMP280;9663;48.996;8.334;2023-04-24T03:54:26;99268.56;;;15.92
19061;BMP280;9663;48.996;8.334;2023-04-24T03:56:52;99275.66;;;15.85
19061;BMP280;9663;48.996;8.334;2023-04-24T03:59:17;99281.84;;;15.80
19061;BMP280;9663;48.996;8.334;2023-04-24T04:01:43;99288.09;;;15.73
19061;BMP280;9663;48.996;8.334;2023-04-24T04:04:09;99296.69;;;15.71
19061;BMP280;9663;48.996;8.334;2023-04-24T04:06:34;99298.59;;;15.66
19061;BMP280;9663;48.996;8.334;2023-04-24T04:09:02;99302.28;;;15.59
19061;BMP280;9663;48.996;8.334;2023-04-24T04:11:28;99307.53;;;15.56
19061;BMP280;9663;48.996;8.334;2023-04-24T04:13:54;99316.31;;;15.49
19061;BMP280;9663;48.996;8.334;2023-04-24T04:16:20;99312.41;;;15.40
19061;BMP280;9663;48.996;8.334;2023-04-24T04:18:46;99314.34;;;15.34
19061;BMP280;9663;48.996;8.334;2023-04-24T04:21:12;99313.78;;;15.26
19061;BMP280;9663;48.996;8.334;2023-04-24T04:23:37;99322.53;;;15.21
19061;BMP280;9663;48.996;8.334;2023-04-24T04:26:04;99319.44;;;15.11
19061;BMP280;9663;48.996;8.334;2023-04-24T04:28:30;99334.03;;;15.08
19061;BMP280;9663;48.996;8.334;2023-04-24T04:30:58;99329.19;;;15.02
19061;BMP280;9663;48.996;8.334;2023-04-24T04:33:24;99336.31;;;14.93
19061;BMP280;9663;48.996;8.334;2023-04-24T04:35:52;99335.66;;;14.88
19061;BMP280;9663;48.996;8.334;2023-04-24T04:38:21;99335.03;;;14.81
19061;BMP280;9663;48.996;8.334;2023-04-24T04:40:46;99358.94;;;14.79
19061;BMP280;9663;48.996;8.334;2023-04-24T04:43:12;99354.00;;;14.74
19061;BMP280;9663;48.996;8.334;2023-04-24T04:45:41;99365.03;;;14.75
19061;BMP280;9663;48.996;8.334;2023-04-24T04:48:09;99369.38;;;14.73
19061;BMP280;9663;48.996;8.334;2023-04-24T04:50:37;99362.66;;;14.70
19061;BMP280;9663;48.996;8.334;2023-04-24T04:53:03;99362.69;;;14.69
19061;BMP280;9663;48.996;8.334;2023-04-24T04:55:29;99364.38;;;14.70
19061;BMP280;9663;48.996;8.334;2023-04-24T04:57:55;99366.97;;;14.68
19061;BMP280;9663;48.996;8.334;2023-04-24T05:00:21;99382.19;;;14.71
19061;BMP280;9663;48.996;8.334;2023-04-24T05:02:49;99377.03;;;14.73
19061;BMP280;9663;48.996;8.334;2023-04-24T05:05:15;99378.53;;;14.78
19061;BMP280;9663;48.996;8.334;2023-04-24T05:07:42;99378.28;;;14.86
19061;BMP280;9663;48.996;8.334;2023-04-24T05:10:08;99393.28;;;14.94
19061;BMP280;9663;48.996;8.334;2023-04-24T05:12:34;99385.94;;;15.08
19061;BMP280;9663;48.996;8.334;2023-04-24T05:15:00;99381.38;;;15.18
19061;BMP280;9663;48.996;8.334;2023-04-24T05:17:25;99381.88;;;15.27
19061;BMP280;9663;48.996;8.334;2023-04-24T05:19:51;99381.44;;;15.39
19061;BMP280;9663;48.996;8.334;2023-04-24T05:22:17;99383.72;;;15.46
19061;BMP280;9663;48.996;8.334;2023-04-24T05:24:45;99386.81;;;15.54
19061;BMP280;9663;48.996;8.334;2023-04-24T05:27:11;99392.50;;;15.61
19061;BMP280;9663;48.996;8.334;2023-04-24T05:29:36;99392.25;;;15.68
19061;BMP280;9663;48.996;8.334;2023-04-24T05:32:02;99395.56;;;15.70
19061;BMP280;9663;48.996;8.334;2023-04-24T05:34:27;99393.50;;;15.80
19061;BMP280;9663;48.996;8.334;2023-04-24T05:36:53;99397.66;;;15.82
19061;BMP280;9663;48.996;8.334;2023-04-24T05:39:19;99412.06;;;15.84
19061;BMP280;9663;48.996;8.334;2023-04-24T05:41:45;99416.28;;;15.85
19061;BMP280;9663;48.996;8.334;2023-04-24T05:44:10;99414.50;;;15.87
19061;BMP280;9663;48.996;8.334;2023-04-24T05:46:36;99428.28;;;15.83
19061;BMP280;9663;48.996;8.334;2023-04-24T05:49:02;99416.34;;;15.84
19061;BMP280;9663;48.996;8.334;2023-04-24T05:51:28;99418.00;;;15.85
19061;BMP280;9663;48.996;8.334;2023-04-24T05:53:54;99418.69;;;15.88
19061;BMP280;9663;48.996;8.334;2023-04-24T05:56:20;99417.81;;;15.89
19061;BMP280;9663;48.996;8.334;2023-04-24T05:58:46;99421.09;;;15.93
19061;BMP280;9663;48.996;8.334;2023-04-24T06:01:13;99431.97;;;15.98
19061;BMP280;9663;48.996;8.334;2023-04-24T06:03:41;99434.47;;;15.99
19061;BMP280;9663;48.996;8.334;2023-04-24T06:06:07;99444.47;;;16.05
19061;BMP280;9663;48.996;8.334;2023-04-24T06:08:34;99445.13;;;16.10
19061;BMP280;9663;48.996;8.334;2023-04-24T06:11:00;99444.22;;;16.11
19061;BMP280;9663;48.996;8.334;2023-04-24T06:13:26;99445.13;;;16.10
19061;BMP280;9663;48.996;8.334;2023-04-24T06:15:52;99450.06;;;16.15
19061;BMP280;9663;48.996;8.334;2023-04-24T06:18:18;99446.56;;;16.17
19061;BMP280;9663;48.996;8.334;2023-04-24T06:20:46;99451.38;;;16.24
19061;BMP280;9663;48.996;8.334;2023-04-24T06:23:11;99449.53;;;16.28
19061;BMP280;9663;48.996;8.334;2023-04-24T06:25:38;99446.16;;;16.27
19061;BMP280;9663;48.996;8.334;2023-04-24T06:28:03;99441.94;;;16.26
19061;BMP280;9663;48.996;8.334;2023-04-24T06:30:30;99440.38;;;16.23
19061;BMP280;9663;48.996;8.334;2023-04-24T06:32:56;99447.25;;;16.22
19061;BMP280;9663;48.996;8.334;2023-04-24T06:35:22;99455.88;;;16.18
19061;BMP280;9663;48.996;8.334;2023-04-24T06:37:47;99466.88;;;16.22
19061;BMP280;9663;48.996;8.334;2023-04-24T06:40:13;99465.22;;;16.21
19061;BMP280;9663;48.996;8.334;2023-04-24T06:42:39;99466.03;;;16.21
19061;BMP280;9663;48.996;8.334;2023-04-24T06:45:05;99465.03;;;16.25
19061;BMP280;9663;48.996;8.334;2023-04-24T06:47:31;99463.03;;;16.33
19061;BMP280;9663;48.996;8.334;2023-04-24T06:49:58;99471.78;;;16.47
19061;BMP280;9663;48.996;8.334;2023-04-24T06:52:24;99456.97;;;16.55
19061;BMP280;9663;48.996;8.334;2023-04-24T06:54:50;99460.88;;;16.64
19061;BMP280;9663;48.996;8.334;2023-04-24T06:57:15;99447.91;;;16.68
19061;BMP280;9663;48.996;8.334;2023-04-24T06:59:42;99441.81;;;16.70
19061;BMP280;9663;48.996;8.334;2023-04-24T07:02:08;99448.66;;;16.70
19061;BMP280;9663;48.996;8.334;2023-04-24T07:04:33;99464.72;;;16.73
19061;BMP280;9663;48.996;8.334;2023-04-24T07:06:59;99459.53;;;16.75
19061;BMP280;9663;48.996;8.334;2023-04-24T07:09:26;99480.78;;;16.77
19061;BMP280;9663;48.996;8.334;2023-04-24T07:11:52;99472.22;;;16.78
19061;BMP280;9663;48.996;8.334;2023-04-24T07:14:19;99472.03;;;16.82
19061;BMP280;9663;48.996;8.334;2023-04-24T07:16:46;99470.94;;;16.88
19061;BMP280;9663;48.996;8.334;2023-04-24T07:19:13;99486.91;;;16.94
19061;BMP280;9663;48.996;8.334;2023-04-24T07:21:39;99486.00;;;16.95
19061;BMP280;9663;48.996;8.334;2023-04-24T07:24:05;99479.09;;;16.97
19061;BMP280;9663;48.996;8.334;2023-04-24T07:26:31;99477.13;;;17.04
19061;BMP280;9663;48.996;8.334;2023-04-24T07:28:57;99491.31;;;17.10
19061;BMP280;9663;48.996;8.334;2023-04-24T07:31:22;99478.06;;;17.21
19061;BMP280;9663;48.996;8.334;2023-04-24T07:33:48;99489.34;;;17.37
19061;BMP280;9663;48.996;8.334;2023-04-24T07:36:15;99478.16;;;17.57
19061;BMP280;9663;48.996;8.334;2023-04-24T07:38:45;99490.31;;;17.72
19061;BMP280;9663;48.996;8.334;2023-04-24T07:41:12;99493.22;;;17.83
19061;BMP280;9663;48.996;8.334;2023-04-24T07:43:38;99498.81;;;17.91
19061;BMP280;9663;48.996;8.334;2023-04-24T07:46:03;99505.63;;;17.92
19061;BMP280;9663;48.996;8.334;2023-04-24T07:48:29;99498.75;;;17.93
19061;BMP280;9663;48.996;8.334;2023-04-24T07:50:55;99521.47;;;17.82
19061;BMP280;9663;48.996;8.334;2023-04-24T07:53:20;99530.72;;;17.67
19061;BMP280;9663;48.996;8.334;2023-04-24T07:55:46;99538.09;;;17.55
19061;BMP280;9663;48.996;8.334;2023-04-24T07:58:12;99538.81;;;17.39
19061;BMP280;9663;48.996;8.334;2023-04-24T08:00:37;99543.94;;;17.19
19061;BMP280;9663;48.996;8.334;2023-04-24T08:03:03;99547.91;;;17.05
19061;BMP280;9663;48.996;8.334;2023-04-24T08:05:29;99540.56;;;16.97
19061;BMP280;9663;48.996;8.334;2023-04-24T08:07:55;99544.19;;;16.92
19061;BMP280;9663;48.996;8.334;2023-04-24T08:10:22;99533.06;;;16.93
19061;BMP280;9663;48.996;8.334;2023-04-24T08:12:48;99535.31;;;17.00
19061;BMP280;9663;48.996;8.334;2023-04-24T08:15:14;99555.13;;;17.16
19061;BMP280;9663;48.996;8.334;2023-04-24T08:17:40;99554.66;;;17.28
19061;BMP280;9663;48.996;8.334;2023-04-24T08:20:08;99551.69;;;17.37
19061;BMP280;9663;48.996;8.334;2023-04-24T08:22:42;99568.41;;;17.46
19061;BMP280;9663;48.996;8.334;2023-04-24T08:25:10;99583.53;;;17.52
19061;BMP280;9663;48.996;8.334;2023-04-24T08:27:36;99581.09;;;17.49
19061;BMP280;9663;48.996;8.334;2023-04-24T08:30:06;99588.97;;;17.44
19061;BMP280;9663;48.996;8.334;2023-04-24T08:32:32;99597.19;;;17.32
19061;BMP280;9663;48.996;8.334;2023-04-24T08:34:59;99598.28;;;17.27
19061;BMP280;9663;48.996;8.334;2023-04-24T08:37:27;99585.78;;;17.18
19061;BMP280;9663;48.996;8.334;2023-04-24T08:39:53;99600.66;;;17.10
19061;BMP280;9663;48.996;8.334;2023-04-24T08:42:19;99593.97;;;17.06
19061;BMP280;9663;48.996;8.334;2023-04-24T08:44:48;99594.25;;;17.00
19061;BMP280;9663;48.996;8.334;2023-04-24T08:47:15;99592.38;;;17.04
19061;BMP280;9663;48.996;8.334;2023-04-24T08:49:42;99593.75;;;17.12
19061;BMP280;9663;48.996;8.334;2023-04-24T08:52:08;99607.19;;;17.38
19061;BMP280;9663;48.996;8.334;2023-04-24T08:54:35;99588.84;;;17.67
19061;BMP280;9663;48.996;8.334;2023-04-24T08:57:03;99597.97;;;17.92
19061;BMP280;9663;48.996;8.334;2023-04-24T08:59:32;99604.41;;;18.20
19061;BMP280;9663;48.996;8.334;2023-04-24T09:01:59;99602.41;;;18.45
19061;BMP280;9663;48.996;8.334;2023-04-24T09:04:25;99601.72;;;18.60
19061;BMP280;9663;48.996;8.334;2023-04-24T09:06:58;99608.75;;;18.73
19061;BMP280;9663;48.996;8.334;2023-04-24T09:09:24;99603.41;;;18.78
19061;BMP280;9663;48.996;8.334;2023-04-24T09:11:52;99613.38;;;18.83
19061;BMP280;9663;48.996;8.334;2023-04-24T09:14:20;99616.06;;;18.82
19061;BMP280;9663;48.996;8.334;2023-04-24T09:16:47;99617.84;;;18.80
19061;BMP280;9663;48.996;8.334;2023-04-24T09:19:13;99608.63;;;18.76
19061;BMP280;9663;48.996;8.334;2023-04-24T09:21:38;99619.78;;;18.75
19061;BMP280;9663;48.996;8.334;2023-04-24T09:24:14;99621.19;;;18.64
19061;BMP280;9663;48.996;8.334;2023-04-24T09:26:43;99620.81;;;18.54
19061;BMP280;9663;48.996;8.334;2023-04-24T09:29:16;99634.72;;;18.49
19061;BMP280;9663;48.996;8.334;2023-04-24T09:31:45;99605.19;;;18.40
19061;BMP280;9663;48.996;8.334;2023-04-24T09:34:12;99633.97;;;18.29
19061;BMP280;9663;48.996;8.334;2023-04-24T09:36:42;99635.28;;;18.19
19061;BMP280;9663;48.996;8.334;2023-04-24T09:39:11;99661.28;;;18.11
19061;BMP280;9663;48.996;8.334;2023-04-24T09:41:52;99642.56;;;18.08
19061;BMP280;9663;48.996;8.334;2023-04-24T09:44:23;99649.50;;;18.06
19061;BMP280;9663;48.996;8.334;2023-04-24T09:47:00;99639.03;;;18.12
19061;BMP280;9663;48.996;8.334;2023-04-24T09:49:30;99649.63;;;18.23
19061;BMP280;9663;48.996;8.334;2023-04-24T09:52:09;99644.25;;;18.29
19061;BMP280;9663;48.996;8.334;2023-04-24T09:54:35;99637.66;;;18.41
19061;BMP280;9663;48.996;8.334;2023-04-24T09:57:02;99635.28;;;18.55
19061;BMP280;9663;48.996;8.334;2023-04-24T09:59:29;99622.59;;;18.71
19061;BMP280;9663;48.996;8.334;2023-04-24T10:01:55;99640.00;;;18.83
19061;BMP280;9663;48.996;8.334;2023-04-24T10:04:25;99647.69;;;19.01
19061;BMP280;9663;48.996;8.334;2023-04-24T10:06:54;99643.56;;;19.15
19061;BMP280;9663;48.996;8.334;2023-04-24T10:09:24;99640.63;;;19.23
19061;BMP280;9663;48.996;8.334;2023-04-24T10:11:52;99641.78;;;19.34
19061;BMP280;9663;48.996;8.334;2023-04-24T10:14:24;99642.53;;;19.36
19061;BMP280;9663;48.996;8.334;2023-04-24T10:16:54;99650.47;;;19.31
19061;BMP280;9663;48.996;8.334;2023-04-24T10:19:26;99641.53;;;19.22
19061;BMP280;9663;48.996;8.334;2023-04-24T10:21:53;99652.25;;;19.13
19061;BMP280;9663;48.996;8.334;2023-04-24T10:24:20;99666.44;;;19.03
19061;BMP280;9663;48.996;8.334;2023-04-24T10:26:48;99692.19;;;18.83
19061;BMP280;9663;48.996;8.334;2023-04-24T10:29:18;99683.06;;;18.59
19061;BMP280;9663;48.996;8.334;2023-04-24T10:31:44;99688.09;;;18.42
19061;BMP280;9663;48.996;8.334;2023-04-24T10:34:16;99690.50;;;18.27
19061;BMP280;9663;48.996;8.334;2023-04-24T10:36:49;99695.47;;;18.12
19061;BMP280;9663;48.996;8.334;2023-04-24T10:39:17;99678.66;;;18.05
19061;BMP280;9663;48.996;8.334;2023-04-24T10:41:44;99703.00;;;17.95
19061;BMP280;9663;48.996;8.334;2023-04-24T10:44:14;99704.00;;;17.93
19061;BMP280;9663;48.996;8.334;2023-04-24T10:46:46;99693.84;;;17.90
19061;BMP280;9663;48.996;8.334;2023-04-24T10:49:13;99688.66;;;17.91
19061;BMP280;9663;48.996;8.334;2023-04-24T10:51:49;99688.53;;;17.94
19061;BMP280;9663;48.996;8.334;2023-04-24T10:59:44;99705.28;;;17.83
19061;BMP280;9663;48.996;8.334;2023-04-24T11:02:10;99712.25;;;17.79
19061;BMP280;9663;48.996;8.334;2023-04-24T11:04:36;99717.63;;;17.73
19061;BMP280;9663;48.996;8.334;2023-04-24T11:07:04;99711.03;;;17.68
19061;BMP280;9663;48.996;8.334;2023-04-24T11:09:32;99721.06;;;17.74
19061;BMP280;9663;48.996;8.334;2023-04-24T11:12:09;99713.41;;;17.72
19061;BMP280;9663;48.996;8.334;2023-04-24T11:17:33;99739.84;;;17.74
19061;BMP280;9663;48.996;8.334;2023-04-24T11:20:04;99726.03;;;17.77
19061;BMP280;9663;48.996;8.334;2023-04-24T11:22:34;99715.00;;;17.75
19061;BMP280;9663;48.996;8.334;2023-04-24T11:25:04;99725.22;;;17.76
19061;BMP280;9663;48.996;8.334;2023-04-24T11:27:42;99733.66;;;17.78
19061;BMP280;9663;48.996;8.334;2023-04-24T11:30:10;99727.25;;;17.88
19061;BMP280;9663;48.996;8.334;2023-04-24T11:32:39;99732.91;;;17.96
19061;BMP280;9663;48.996;8.334;2023-04-24T11:35:18;99728.75;;;17.94
19061;BMP280;9663;48.996;8.334;2023-04-24T11:37:50;99743.34;;;17.92
19061;BMP280;9663;48.996;8.334;2023-04-24T11:40:18;99733.31;;;17.87
19061;BMP280;9663;48.996;8.334;2023-04-24T11:42:50;99740.53;;;17.78
19061;BMP280;9663;48.996;8.334;2023-04-24T11:45:27;99738.91;;;17.75
19061;BMP280;9663;48.996;8.334;2023-04-24T11:47:53;99752.66;;;17.74
19061;BMP280;9663;48.996;8.334;2023-04-24T11:50:22;99751.03;;;17.72
19061;BMP280;9663;48.996;8.334;2023-04-24T11:52:50;99746.75;;;17.72
19061;BMP280;9663;48.996;8.334;2023-04-24T11:57:51;99740.84;;;18.31
19061;BMP280;9663;48.996;8.334;2023-04-24T12:00:24;99730.75;;;19.20
19061;BMP280;9663;48.996;8.334;2023-04-24T12:02:51;99735.50;;;20.61
19061;BMP280;9663;48.996;8.334;2023-04-24T12:05:35;99727.84;;;22.26
19061;BMP280;9663;48.996;8.334;2023-04-24T12:08:01;99721.22;;;23.31
19061;BMP280;9663;48.996;8.334;2023-04-24T12:10:29;99711.91;;;24.30
19061;BMP280;9663;48.996;8.334;2023-04-24T12:12:57;99711.13;;;24.90
19061;BMP280;9663;48.996;8.334;2023-04-24T12:15:24;99713.56;;;24.56
19061;BMP280;9663;48.996;8.334;2023-04-24T12:17:52;99733.72;;;23.89
19061;BMP280;9663;48.996;8.334;2023-04-24T12:20:31;99718.75;;;23.16
19061;BMP280;9663;48.996;8.334;2023-04-24T12:22:59;99726.66;;;22.73
19061;BMP280;9663;48.996;8.334;2023-04-24T12:25:28;99733.50;;;22.46
19061;BMP280;9663;48.996;8.334;2023-04-24T12:30:32;99732.09;;;22.68
19061;BMP280;9663;48.996;8.334;2023-04-24T12:33:00;99715.28;;;23.03
19061;BMP280;9663;48.996;8.334;2023-04-24T12:35:29;99718.63;;;23.31
19061;BMP280;9663;48.996;8.334;2023-04-24T12:37:55;99715.75;;;23.61
19061;BMP280;9663;48.996;8.334;2023-04-24T12:40:25;99709.47;;;23.65
19061;BMP280;9663;48.996;8.334;2023-04-24T12:42:51;99705.53;;;23.46
19061;BMP280;9663;48.996;8.334;2023-04-24T12:45:18;99722.47;;;23.38
19061;BMP280;9663;48.996;8.334;2023-04-24T12:47:45;99713.75;;;23.13
19061;BMP280;9663;48.996;8.334;2023-04-24T12:50:14;99717.56;;;23.07
19061;BMP280;9663;48.996;8.334;2023-04-24T12:52:41;99726.03;;;23.49
19061;BMP280;9663;48.996;8.334;2023-04-24T12:55:07;99715.09;;;24.09
19061;BMP280;9663;48.996;8.334;2023-04-24T12:57:36;99710.13;;;24.06
19061;BMP280;9663;48.996;8.334;2023-04-24T13:00:05;99713.09;;;23.49
19061;BMP280;9663;48.996;8.334;2023-04-24T13:02:31;99695.28;;;22.78
19061;BMP280;9663;48.996;8.334;2023-04-24T13:04:58;99711.06;;;22.19
19061;BMP280;9663;48.996;8.334;2023-04-24T13:07:25;99704.84;;;21.64
19061;BMP280;9663;48.996;8.334;2023-04-24T13:09:52;99727.66;;;21.26
19061;BMP280;9663;48.996;8.334;2023-04-24T13:12:19;99724.94;;;21.13
19061;BMP280;9663;48.996;8.334;2023-04-24T13:14:45;99721.84;;;21.53
19061;BMP280;9663;48.996;8.334;2023-04-24T13:17:11;99724.53;;;22.65
19061;BMP280;9663;48.996;8.334;2023-04-24T13:19:41;99725.41;;;23.46
19061;BMP280;9663;48.996;8.334;2023-04-24T13:22:09;99715.09;;;24.09
19061;BMP280;9663;48.996;8.334;2023-04-24T13:24:35;99713.94;;;24.01
19061;BMP280;9663;48.996;8.334;2023-04-24T13:27:01;99715.59;;;23.77
19061;BMP280;9663;48.996;8.334;2023-04-24T13:29:27;99713.22;;;23.60
19061;BMP280;9663;48.996;8.334;2023-04-24T13:31:54;99712.03;;;23.65
19061;BMP280;9663;48.996;8.334;2023-04-24T13:34:22;99703.28;;;23.54
19061;BMP280;9663;48.996;8.334;2023-04-24T13:36:49;99702.88;;;23.34
19061;BMP280;9663;48.996;8.334;2023-04-24T13:39:15;99701.88;;;23.10
19061;BMP280;9663;48.996;8.334;2023-04-24T13:41:41;99707.38;;;22.92
19061;BMP280;9663;48.996;8.334;2023-04-24T13:44:07;99715.41;;;22.60
19061;BMP280;9663;48.996;8.334;2023-04-24T13:46:32;99705.00;;;22.20
19061;BMP280;9663;48.996;8.334;2023-04-24T13:48:59;99705.06;;;21.75
19061;BMP280;9663;48.996;8.334;2023-04-24T13:51:27;99714.28;;;21.35
19061;BMP280;9663;48.996;8.334;2023-04-24T13:53:53;99707.59;;;21.01
19061;BMP280;9663;48.996;8.334;2023-04-24T13:56:19;99712.22;;;20.80
19061;BMP280;9663;48.996;8.334;2023-04-24T13:58:45;99718.22;;;20.63
19061;BMP280;9663;48.996;8.334;2023-04-24T14:01:12;99700.84;;;20.52
19061;BMP280;9663;48.996;8.334;2023-04-24T14:03:38;99709.16;;;20.41
19061;BMP280;9663;48.996;8.334;2023-04-24T14:06:04;99716.56;;;20.30
19061;BMP280;9663;48.996;8.334;2023-04-24T14:08:32;99713.28;;;20.12
19061;BMP280;9663;48.996;8.334;2023-04-24T14:10:58;99719.50;;;19.91
19061;BMP280;9663;48.996;8.334;2023-04-24T14:13:24;99711.78;;;19.74
19061;BMP280;9663;48.996;8.334;2023-04-24T14:15:51;99749.97;;;19.65
19061;BMP280;9663;48.996;8.334;2023-04-24T14:18:18;99718.97;;;19.68
19061;BMP280;9663;48.996;8.334;2023-04-24T14:20:44;99708.81;;;20.47
19061;BMP280;9663;48.996;8.334;2023-04-24T14:23:13;99698.00;;;21.63
19061;BMP280;9663;48.996;8.334;2023-04-24T14:25:39;99696.31;;;22.34
19061;BMP280;9663;48.996;8.334;2023-04-24T14:28:06;99692.69;;;22.78
19061;BMP280;9663;48.996;8.334;2023-04-24T14:30:33;99691.47;;;22.98
19061;BMP280;9663;48.996;8.334;2023-04-24T14:32:58;99681.66;;;23.29